sensor_id;sensor_type;location;lat;lon;timestamp;P1;durP1;ratioP1;P2;durP2;ratioP2
19889;SDS011;10107;51.198;6.824;2023-11-21T00:01:47;9.50;;;6.00;;
19889;SDS011;10107;51.198;6.824;2023-11-21T00:05:50;10.13;;;6.45;;
19889;SDS011;10107;51.198;6.824;2023-11-21T00:09:52;11.50;;;6.78;;
19889;SDS011;10107;51.198;6.824;2023-11-21T00:13:55;10.20;;;6.82;;
19889;SDS011;10107;51.198;6.824;2023-11-21T00:17:57;9.02;;;6.60;;
19889;SDS011;10107;51.198;6.824;2023-11-21T00:22:00;9.45;;;6.20;;
19889;SDS011;10107;51.198;6.824;2023-11-21T00:26:02;9.10;;;6.70;;
19889;SDS011;10107;51.198;6.824;2023-11-21T00:30:04;9.55;;;6.38;;
19889;SDS011;10107;51.198;6.824;2023-11-21T00:38:11;11.02;;;5.80;;
19889;SDS011;10107;51.198;6.824;2023-11-21T00:42:12;10.85;;;6.38;;
19889;SDS011;10107;51.198;6.824;2023-11-21T00:46:14;9.07;;;6.25;;
19889;SDS011;10107;51.198;6.824;2023-11-21T00:50:15;10.15;;;6.63;;
19889;SDS011;10107;51.198;6.824;2023-11-21T00:54:18;9.25;;;6.03;;
19889;SDS011;10107;51.198;6.824;2023-11-21T00:58:20;11.30;;;6.90;;
19889;SDS011;10107;51.198;6.824;2023-11-21T01:02:21;10.57;;;6.85;;
19889;SDS011;10107;51.198;6.824;2023-11-21T01:06:23;14.35;;;7.75;;
19889;SDS011;10107;51.198;6.824;2023-11-21T01:10:26;10.27;;;7.20;;
19889;SDS011;10107;51.198;6.824;2023-11-21T01:14:28;8.60;;;4.72;;
19889;SDS011;10107;51.198;6.824;2023-11-21T01:18:31;11.10;;;7.07;;
19889;SDS011;10107;51.198;6.824;2023-11-21T01:22:33;11.60;;;6.90;;
19889;SDS011;10107;51.198;6.824;2023-11-21T01:26:36;11.82;;;7.30;;
19889;SDS011;10107;51.198;6.824;2023-11-21T01:30:37;11.93;;;7.20;;
19889;SDS011;10107;51.198;6.824;2023-11-21T01:34:39;11.18;;;6.90;;
19889;SDS011;10107;51.198;6.824;2023-11-21T01:38:41;12.35;;;6.72;;
19889;SDS011;10107;51.198;6.824;2023-11-21T01:42:44;12.40;;;7.80;;
19889;SDS011;10107;51.198;6.824;2023-11-21T01:46:47;10.73;;;6.80;;
19889;SDS011;10107;51.198;6.824;2023-11-21T01:50:49;12.00;;;7.40;;
19889;SDS011;10107;51.198;6.824;2023-11-21T01:54:51;14.93;;;8.10;;
19889;SDS011;10107;51.198;6.824;2023-11-21T01:58:55;11.75;;;7.65;;
19889;SDS011;10107;51.198;6.824;2023-11-21T02:02:57;9.13;;;5.47;;
19889;SDS011;10107;51.198;6.824;2023-11-21T02:06:59;12.45;;;7.35;;
19889;SDS011;10107;51.198;6.824;2023-11-21T02:11:01;13.65;;;7.88;;
19889;SDS011;10107;51.198;6.824;2023-11-21T02:15:05;13.57;;;7.20;;
19889;SDS011;10107;51.198;6.824;2023-11-21T02:19:16;12.75;;;7.53;;
19889;SDS011;10107;51.198;6.824;2023-11-21T02:23:21;10.65;;;7.15;;
19889;SDS011;10107;51.198;6.824;2023-11-21T02:27:23;13.65;;;7.85;;
19889;SDS011;10107;51.198;6.824;2023-11-21T02:31:27;11.07;;;7.78;;
19889;SDS011;10107;51.198;6.824;2023-11-21T02:35:30;8.70;;;5.47;;
19889;SDS011;10107;51.198;6.824;2023-11-21T02:39:33;12.75;;;7.72;;
19889;SDS011;10107;51.198;6.824;2023-11-21T02:43:35;11.33;;;7.40;;
19889;SDS011;10107;51.198;6.824;2023-11-21T02:47:38;12.23;;;7.40;;
19889;SDS011;10107;51.198;6.824;2023-11-21T02:51:40;13.40;;;7.47;;
19889;SDS011;10107;51.198;6.824;2023-11-21T02:55:43;11.32;;;7.53;;
19889;SDS011;10107;51.198;6.824;2023-11-21T02:59:44;13.52;;;7.78;;
19889;SDS011;10107;51.198;6.824;2023-11-21T03:03:46;12.70;;;7.18;;
19889;SDS011;10107;51.198;6.824;2023-11-21T03:07:51;14.13;;;8.02;;
19889;SDS011;10107;51.198;6.824;2023-11-21T03:11:54;13.57;;;7.82;;
19889;SDS011;10107;51.198;6.824;2023-11-21T03:15:56;14.07;;;8.33;;
19889;SDS011;10107;51.198;6.824;2023-11-21T03:19:58;12.82;;;7.80;;
19889;SDS011;10107;51.198;6.824;2023-11-21T03:24:00;11.15;;;7.40;;
19889;SDS011;10107;51.198;6.824;2023-11-21T03:28:03;12.85;;;7.32;;
19889;SDS011;10107;51.198;6.824;2023-11-21T03:32:05;13.88;;;7.68;;
19889;SDS011;10107;51.198;6.824;2023-11-21T03:36:08;12.73;;;7.60;;
19889;SDS011;10107;51.198;6.824;2023-11-21T03:40:10;12.45;;;7.20;;
19889;SDS011;10107;51.198;6.824;2023-11-21T03:44:14;10.75;;;7.15;;
19889;SDS011;10107;51.198;6.824;2023-11-21T03:48:16;14.25;;;7.22;;
19889;SDS011;10107;51.198;6.824;2023-11-21T03:52:17;11.02;;;6.47;;
19889;SDS011;10107;51.198;6.824;2023-11-21T03:56:19;10.77;;;6.95;;
19889;SDS011;10107;51.198;6.824;2023-11-21T04:00:23;11.70;;;7.10;;
19889;SDS011;10107;51.198;6.824;2023-11-21T04:04:26;13.30;;;7.32;;
19889;SDS011;10107;51.198;6.824;2023-11-21T04:08:27;12.27;;;8.10;;
19889;SDS011;10107;51.198;6.824;2023-11-21T04:12:29;13.70;;;8.45;;
19889;SDS011;10107;51.198;6.824;2023-11-21T04:16:32;13.93;;;8.77;;
19889;SDS011;10107;51.198;6.824;2023-11-21T04:20:33;15.15;;;9.88;;
19889;SDS011;10107;51.198;6.824;2023-11-21T04:24:35;15.65;;;9.10;;
19889;SDS011;10107;51.198;6.824;2023-11-21T04:28:36;14.73;;;9.70;;
19889;SDS011;10107;51.198;6.824;2023-11-21T04:32:39;16.58;;;10.13;;
19889;SDS011;10107;51.198;6.824;2023-11-21T04:36:41;16.73;;;11.07;;
19889;SDS011;10107;51.198;6.824;2023-11-21T04:40:43;17.35;;;10.95;;
19889;SDS011;10107;51.198;6.824;2023-11-21T04:44:45;20.27;;;12.20;;
19889;SDS011;10107;51.198;6.824;2023-11-21T04:48:48;18.67;;;11.90;;
19889;SDS011;10107;51.198;6.824;2023-11-21T04:52:49;16.92;;;11.13;;
19889;SDS011;10107;51.198;6.824;2023-11-21T04:56:51;18.02;;;10.32;;
19889;SDS011;10107;51.198;6.824;2023-11-21T05:00:52;16.00;;;10.20;;
19889;SDS011;10107;51.198;6.824;2023-11-21T05:04:55;19.10;;;10.82;;
19889;SDS011;10107;51.198;6.824;2023-11-21T05:08:57;15.80;;;9.70;;
19889;SDS011;10107;51.198;6.824;2023-11-21T05:12:58;16.42;;;9.65;;
19889;SDS011;10107;51.198;6.824;2023-11-21T05:17:00;16.27;;;9.95;;
19889;SDS011;10107;51.198;6.824;2023-11-21T05:21:03;15.07;;;9.93;;
19889;SDS011;10107;51.198;6.824;2023-11-21T05:25:05;16.48;;;10.20;;
19889;SDS011;10107;51.198;6.824;2023-11-21T05:29:08;13.50;;;7.80;;
19889;SDS011;10107;51.198;6.824;2023-11-21T05:33:11;16.42;;;9.85;;
19889;SDS011;10107;51.198;6.824;2023-11-21T05:37:13;14.73;;;10.25;;
19889;SDS011;10107;51.198;6.824;2023-11-21T05:41:15;14.10;;;9.47;;
19889;SDS011;10107;51.198;6.824;2023-11-21T05:45:17;16.10;;;10.18;;
19889;SDS011;10107;51.198;6.824;2023-11-21T05:49:19;16.15;;;9.30;;
19889;SDS011;10107;51.198;6.824;2023-11-21T05:53:23;14.67;;;9.90;;
19889;SDS011;10107;51.198;6.824;2023-11-21T05:57:24;11.63;;;7.20;;
19889;SDS011;10107;51.198;6.824;2023-11-21T06:01:26;15.85;;;9.77;;
19889;SDS011;10107;51.198;6.824;2023-11-21T06:05:28;20.23;;;11.20;;
19889;SDS011;10107;51.198;6.824;2023-11-21T06:09:33;21.52;;;12.90;;
19889;SDS011;10107;51.198;6.824;2023-11-21T06:13:35;15.13;;;8.55;;
19889;SDS011;10107;51.198;6.824;2023-11-21T06:17:37;20.98;;;12.27;;
19889;SDS011;10107;51.198;6.824;2023-11-21T06:21:39;21.30;;;12.65;;
19889;SDS011;10107;51.198;6.824;2023-11-21T06:25:42;22.95;;;13.38;;
19889;SDS011;10107;51.198;6.824;2023-11-21T06:29:44;24.35;;;13.65;;
19889;SDS011;10107;51.198;6.824;2023-11-21T06:33:47;25.98;;;13.48;;
19889;SDS011;10107;51.198;6.824;2023-11-21T06:37:48;23.15;;;13.60;;
19889;SDS011;10107;51.198;6.824;2023-11-21T06:41:52;23.08;;;13.30;;
19889;SDS011;10107;51.198;6.824;2023-11-21T06:45:54;27.38;;;14.20;;
19889;SDS011;10107;51.198;6.824;2023-11-21T06:49:56;24.67;;;13.43;;
19889;SDS011;10107;51.198;6.824;2023-11-21T06:53:58;25.70;;;12.80;;
19889;SDS011;10107;51.198;6.824;2023-11-21T06:58:01;22.75;;;13.07;;
19889;SDS011;10107;51.198;6.824;2023-11-21T07:02:02;14.82;;;8.68;;
19889;SDS011;10107;51.198;6.824;2023-11-21T07:06:06;23.65;;;12.57;;
19889;SDS011;10107;51.198;6.824;2023-11-21T07:10:09;26.02;;;13.05;;
19889;SDS011;10107;51.198;6.824;2023-11-21T07:14:12;26.10;;;13.70;;
19889;SDS011;10107;51.198;6.824;2023-11-21T07:18:14;27.98;;;13.90;;
19889;SDS011;10107;51.198;6.824;2023-11-21T07:22:15;25.25;;;13.18;;
19889;SDS011;10107;51.198;6.824;2023-11-21T07:26:21;30.15;;;14.45;;
19889;SDS011;10107;51.198;6.824;2023-11-21T07:30:24;30.10;;;15.45;;
19889;SDS011;10107;51.198;6.824;2023-11-21T07:34:25;27.27;;;14.10;;
19889;SDS011;10107;51.198;6.824;2023-11-21T07:38:27;27.33;;;13.18;;
19889;SDS011;10107;51.198;6.824;2023-11-21T07:42:29;28.08;;;12.80;;
19889;SDS011;10107;51.198;6.824;2023-11-21T07:46:32;27.60;;;13.50;;
19889;SDS011;10107;51.198;6.824;2023-11-21T07:50:33;20.97;;;9.40;;
19889;SDS011;10107;51.198;6.824;2023-11-21T07:54:35;21.48;;;11.38;;
19889;SDS011;10107;51.198;6.824;2023-11-21T07:58:36;30.13;;;14.25;;
19889;SDS011;10107;51.198;6.824;2023-11-21T08:02:40;24.30;;;12.68;;
19889;SDS011;10107;51.198;6.824;2023-11-21T08:06:42;31.35;;;14.20;;
19889;SDS011;10107;51.198;6.824;2023-11-21T08:10:44;23.35;;;12.45;;
19889;SDS011;10107;51.198;6.824;2023-11-21T08:14:56;25.10;;;12.80;;
19889;SDS011;10107;51.198;6.824;2023-11-21T08:18:59;22.92;;;11.57;;
19889;SDS011;10107;51.198;6.824;2023-11-21T08:23:01;30.88;;;13.35;;
19889;SDS011;10107;51.198;6.824;2023-11-21T08:27:03;29.00;;;14.30;;
19889;SDS011;10107;51.198;6.824;2023-11-21T08:31:05;33.30;;;14.32;;
19889;SDS011;10107;51.198;6.824;2023-11-21T08:35:08;36.08;;;15.30;;
19889;SDS011;10107;51.198;6.824;2023-11-21T08:43:13;32.90;;;14.75;;
19889;SDS011;10107;51.198;6.824;2023-11-21T08:47:16;37.38;;;16.08;;
19889;SDS011;10107;51.198;6.824;2023-11-21T08:51:20;28.38;;;14.05;;
19889;SDS011;10107;51.198;6.824;2023-11-21T08:55:21;27.63;;;12.37;;
19889;SDS011;10107;51.198;6.824;2023-11-21T08:59:23;25.85;;;14.32;;
19889;SDS011;10107;51.198;6.824;2023-11-21T09:03:25;32.60;;;15.05;;
19889;SDS011;10107;51.198;6.824;2023-11-21T09:07:28;29.00;;;15.57;;
19889;SDS011;10107;51.198;6.824;2023-11-21T09:11:29;32.90;;;16.15;;
19889;SDS011;10107;51.198;6.824;2023-11-21T09:15:33;30.00;;;15.40;;
19889;SDS011;10107;51.198;6.824;2023-11-21T09:19:35;31.10;;;14.63;;
19889;SDS011;10107;51.198;6.824;2023-11-21T09:23:38;33.22;;;14.32;;
19889;SDS011;10107;51.198;6.824;2023-11-21T09:27:39;23.27;;;10.87;;
19889;SDS011;10107;51.198;6.824;2023-11-21T09:31:41;26.95;;;13.93;;
19889;SDS011;10107;51.198;6.824;2023-11-21T09:35:44;22.73;;;11.27;;
19889;SDS011;10107;51.198;6.824;2023-11-21T09:39:47;28.88;;;13.90;;
19889;SDS011;10107;51.198;6.824;2023-11-21T09:43:49;33.83;;;15.50;;
19889;SDS011;10107;51.198;6.824;2023-11-21T09:47:56;30.42;;;14.38;;
19889;SDS011;10107;51.198;6.824;2023-11-21T09:51:58;22.30;;;12.30;;
19889;SDS011;10107;51.198;6.824;2023-11-21T09:56:05;23.70;;;12.70;;
19889;SDS011;10107;51.198;6.824;2023-11-21T10:00:09;23.52;;;12.77;;
19889;SDS011;10107;51.198;6.824;2023-11-21T10:04:13;24.60;;;12.68;;
19889;SDS011;10107;51.198;6.824;2023-11-21T10:08:14;24.23;;;12.25;;
19889;SDS011;10107;51.198;6.824;2023-11-21T10:12:17;22.05;;;11.32;;
19889;SDS011;10107;51.198;6.824;2023-11-21T10:16:20;26.77;;;13.15;;
19889;SDS011;10107;51.198;6.824;2023-11-21T10:20:27;23.75;;;12.15;;
19889;SDS011;10107;51.198;6.824;2023-11-21T10:24:29;22.63;;;11.82;;
19889;SDS011;10107;51.198;6.824;2023-11-21T10:28:36;22.38;;;11.23;;
19889;SDS011;10107;51.198;6.824;2023-11-21T10:32:39;23.60;;;11.40;;
19889;SDS011;10107;51.198;6.824;2023-11-21T10:36:41;26.23;;;11.98;;
19889;SDS011;10107;51.198;6.824;2023-11-21T10:40:43;24.48;;;11.73;;
19889;SDS011;10107;51.198;6.824;2023-11-21T10:48:51;29.15;;;12.80;;
19889;SDS011;10107;51.198;6.824;2023-11-21T10:52:54;27.73;;;13.77;;
19889;SDS011;10107;51.198;6.824;2023-11-21T10:56:56;31.88;;;15.15;;
19889;SDS011;10107;51.198;6.824;2023-11-21T11:01:00;32.83;;;15.93;;
19889;SDS011;10107;51.198;6.824;2023-11-21T11:05:06;29.70;;;14.48;;
19889;SDS011;10107;51.198;6.824;2023-11-21T11:09:12;32.15;;;14.57;;
19889;SDS011;10107;51.198;6.824;2023-11-21T11:13:16;26.77;;;14.02;;
19889;SDS011;10107;51.198;6.824;2023-11-21T11:17:20;27.58;;;14.07;;
19889;SDS011;10107;51.198;6.824;2023-11-21T11:21:27;46.95;;;20.52;;
19889;SDS011;10107;51.198;6.824;2023-11-21T11:25:53;46.47;;;22.90;;
19889;SDS011;10107;51.198;6.824;2023-11-21T11:30:10;51.45;;;22.00;;
19889;SDS011;10107;51.198;6.824;2023-11-21T11:34:20;43.90;;;21.80;;
19889;SDS011;10107;51.198;6.824;2023-11-21T11:38:31;46.92;;;22.50;;
19889;SDS011;10107;51.198;6.824;2023-11-21T11:42:34;59.47;;;26.40;;
19889;SDS011;10107;51.198;6.824;2023-11-21T11:46:42;58.88;;;27.15;;
19889;SDS011;10107;51.198;6.824;2023-11-21T11:55:06;51.63;;;24.85;;
19889;SDS011;10107;51.198;6.824;2023-11-21T11:59:10;50.47;;;23.30;;
19889;SDS011;10107;51.198;6.824;2023-11-21T12:03:13;44.80;;;21.60;;
19889;SDS011;10107;51.198;6.824;2023-11-21T12:07:16;42.47;;;22.02;;
19889;SDS011;10107;51.198;6.824;2023-11-21T12:11:18;51.03;;;24.42;;
19889;SDS011;10107;51.198;6.824;2023-11-21T12:15:19;46.35;;;21.13;;
19889;SDS011;10107;51.198;6.824;2023-11-21T12:19:22;36.97;;;18.83;;
19889;SDS011;10107;51.198;6.824;2023-11-21T12:23:25;45.70;;;21.60;;
19889;SDS011;10107;51.198;6.824;2023-11-21T12:31:29;40.30;;;19.33;;
19889;SDS011;10107;51.198;6.824;2023-11-21T12:35:31;41.40;;;18.67;;
19889;SDS011;10107;51.198;6.824;2023-11-21T12:39:36;49.00;;;21.70;;
19889;SDS011;10107;51.198;6.824;2023-11-21T12:43:38;40.63;;;19.43;;
19889;SDS011;10107;51.198;6.824;2023-11-21T12:47:40;39.85;;;18.38;;
19889;SDS011;10107;51.198;6.824;2023-11-21T12:51:43;37.88;;;18.15;;
19889;SDS011;10107;51.198;6.824;2023-11-21T12:55:47;35.30;;;16.17;;
19889;SDS011;10107;51.198;6.824;2023-11-21T12:59:51;37.30;;;18.42;;
19889;SDS011;10107;51.198;6.824;2023-11-21T13:03:54;32.97;;;16.37;;
19889;SDS011;10107;51.198;6.824;2023-11-21T13:07:59;33.20;;;16.52;;
19889;SDS011;10107;51.198;6.824;2023-11-21T13:12:05;35.30;;;16.90;;
19889;SDS011;10107;51.198;6.824;2023-11-21T13:16:09;35.30;;;17.90;;
19889;SDS011;10107;51.198;6.824;2023-11-21T13:20:11;35.38;;;17.25;;
19889;SDS011;10107;51.198;6.824;2023-11-21T13:24:16;34.67;;;18.65;;
19889;SDS011;10107;51.198;6.824;2023-11-21T13:28:19;40.65;;;19.40;;
19889;SDS011;10107;51.198;6.824;2023-11-21T13:32:21;36.20;;;19.35;;
19889;SDS011;10107;51.198;6.824;2023-11-21T13:36:23;46.10;;;22.40;;
19889;SDS011;10107;51.198;6.824;2023-11-21T13:40:25;47.80;;;20.70;;
19889;SDS011;10107;51.198;6.824;2023-11-21T13:44:28;49.13;;;22.00;;
19889;SDS011;10107;51.198;6.824;2023-11-21T13:48:37;40.67;;;19.88;;
19889;SDS011;10107;51.198;6.824;2023-11-21T13:52:42;38.72;;;20.00;;
19889;SDS011;10107;51.198;6.824;2023-11-21T13:56:46;37.47;;;19.00;;
19889;SDS011;10107;51.198;6.824;2023-11-21T14:00:50;38.78;;;19.02;;
19889;SDS011;10107;51.198;6.824;2023-11-21T14:04:56;42.30;;;20.80;;
19889;SDS011;10107;51.198;6.824;2023-11-21T14:09:01;41.70;;;20.38;;
19889;SDS011;10107;51.198;6.824;2023-11-21T14:13:06;55.17;;;25.13;;
19889;SDS011;10107;51.198;6.824;2023-11-21T14:17:11;49.10;;;22.88;;
19889;SDS011;10107;51.198;6.824;2023-11-21T14:21:13;55.58;;;26.25;;
19889;SDS011;10107;51.198;6.824;2023-11-21T14:25:15;50.60;;;25.52;;
19889;SDS011;10107;51.198;6.824;2023-11-21T14:29:18;45.55;;;21.17;;
19889;SDS011;10107;51.198;6.824;2023-11-21T14:33:22;34.90;;;17.05;;
19889;SDS011;10107;51.198;6.824;2023-11-21T14:37:23;28.30;;;15.47;;
19889;SDS011;10107;51.198;6.824;2023-11-21T14:41:25;27.35;;;14.05;;
19889;SDS011;10107;51.198;6.824;2023-11-21T14:45:28;26.40;;;13.50;;
19889;SDS011;10107;51.198;6.824;2023-11-21T14:49:31;23.02;;;13.02;;
19889;SDS011;10107;51.198;6.824;2023-11-21T14:53:45;19.13;;;10.18;;
19889;SDS011;10107;51.198;6.824;2023-11-21T14:57:53;19.05;;;11.07;;
19889;SDS011;10107;51.198;6.824;2023-11-21T15:01:55;17.23;;;10.88;;
19889;SDS011;10107;51.198;6.824;2023-11-21T15:05:58;19.95;;;11.75;;
19889;SDS011;10107;51.198;6.824;2023-11-21T15:10:10;25.25;;;13.43;;
19889;SDS011;10107;51.198;6.824;2023-11-21T15:14:14;24.40;;;13.52;;
19889;SDS011;10107;51.198;6.824;2023-11-21T15:18:21;24.67;;;14.43;;
19889;SDS011;10107;51.198;6.824;2023-11-21T15:22:26;20.20;;;10.30;;
19889;SDS011;10107;51.198;6.824;2023-11-21T15:26:28;29.65;;;16.13;;
19889;SDS011;10107;51.198;6.824;2023-11-21T15:30:31;30.85;;;17.58;;
19889;SDS011;10107;51.198;6.824;2023-11-21T15:34:33;27.20;;;15.57;;
19889;SDS011;10107;51.198;6.824;2023-11-21T15:38:36;29.17;;;16.75;;
19889;SDS011;10107;51.198;6.824;2023-11-21T15:46:40;25.80;;;14.57;;
19889;SDS011;10107;51.198;6.824;2023-11-21T15:50:42;27.42;;;15.68;;
19889;SDS011;10107;51.198;6.824;2023-11-21T15:54:45;22.95;;;13.63;;
19889;SDS011;10107;51.198;6.824;2023-11-21T15:58:47;15.97;;;10.07;;
19889;SDS011;10107;51.198;6.824;2023-11-21T16:02:48;20.02;;;12.20;;
19889;SDS011;10107;51.198;6.824;2023-11-21T16:06:50;20.35;;;11.77;;
19889;SDS011;10107;51.198;6.824;2023-11-21T16:10:54;18.73;;;11.18;;
19889;SDS011;10107;51.198;6.824;2023-11-21T16:14:55;18.67;;;10.02;;
19889;SDS011;10107;51.198;6.824;2023-11-21T16:18:57;15.65;;;9.52;;
19889;SDS011;10107;51.198;6.824;2023-11-21T16:22:58;15.75;;;9.27;;
19889;SDS011;10107;51.198;6.824;2023-11-21T16:27:01;13.80;;;8.55;;
19889;SDS011;10107;51.198;6.824;2023-11-21T16:31:04;12.63;;;8.25;;
19889;SDS011;10107;51.198;6.824;2023-11-21T16:35:06;13.05;;;8.10;;
19889;SDS011;10107;51.198;6.824;2023-11-21T16:39:10;11.85;;;7.57;;
19889;SDS011;10107;51.198;6.824;2023-11-21T16:43:13;12.77;;;7.88;;
19889;SDS011;10107;51.198;6.824;2023-11-21T16:47:15;12.48;;;7.82;;
19889;SDS011;10107;51.198;6.824;2023-11-21T16:51:17;11.82;;;7.68;;
19889;SDS011;10107;51.198;6.824;2023-11-21T16:55:19;12.10;;;7.85;;
19889;SDS011;10107;51.198;6.824;2023-11-21T16:59:22;12.02;;;7.82;;
19889;SDS011;10107;51.198;6.824;2023-11-21T17:03:23;10.10;;;6.67;;
19889;SDS011;10107;51.198;6.824;2023-11-21T17:07:26;12.75;;;8.80;;
19889;SDS011;10107;51.198;6.824;2023-11-21T17:11:29;12.85;;;8.55;;
19889;SDS011;10107;51.198;6.824;2023-11-21T17:15:32;16.13;;;8.20;;
19889;SDS011;10107;51.198;6.824;2023-11-21T17:19:34;15.03;;;9.57;;
19889;SDS011;10107;51.198;6.824;2023-11-21T17:23:36;12.38;;;8.63;;
19889;SDS011;10107;51.198;6.824;2023-11-21T17:27:37;14.77;;;9.35;;
19889;SDS011;10107;51.198;6.824;2023-11-21T17:31:40;18.40;;;10.82;;
19889;SDS011;10107;51.198;6.824;2023-11-21T17:35:42;16.23;;;10.52;;
19889;SDS011;10107;51.198;6.824;2023-11-21T17:39:44;19.50;;;12.07;;
19889;SDS011;10107;51.198;6.824;2023-11-21T17:43:46;18.50;;;11.18;;
19889;SDS011;10107;51.198;6.824;2023-11-21T17:47:49;16.65;;;11.55;;
19889;SDS011;10107;51.198;6.824;2023-11-21T17:51:50;17.70;;;11.97;;
19889;SDS011;10107;51.198;6.824;2023-11-21T17:55:53;16.88;;;11.73;;
19889;SDS011;10107;51.198;6.824;2023-11-21T17:59:55;16.63;;;11.55;;
19889;SDS011;10107;51.198;6.824;2023-11-21T18:03:58;16.75;;;11.15;;
19889;SDS011;10107;51.198;6.824;2023-11-21T18:07:59;15.40;;;10.38;;
19889;SDS011;10107;51.198;6.824;2023-11-21T18:12:01;16.13;;;10.80;;
19889;SDS011;10107;51.198;6.824;2023-11-21T18:16:03;13.93;;;9.95;;
19889;SDS011;10107;51.198;6.824;2023-11-21T18:20:08;16.93;;;11.20;;
19889;SDS011;10107;51.198;6.824;2023-11-21T18:24:10;13.88;;;9.40;;
19889;SDS011;10107;51.198;6.824;2023-11-21T18:28:12;15.27;;;9.73;;
19889;SDS011;10107;51.198;6.824;2023-11-21T18:32:14;13.55;;;9.55;;
19889;SDS011;10107;51.198;6.824;2023-11-21T18:36:17;16.13;;;10.07;;
19889;SDS011;10107;51.198;6.824;2023-11-21T18:40:18;13.90;;;9.07;;
19889;SDS011;10107;51.198;6.824;2023-11-21T18:44:21;13.75;;;9.40;;
19889;SDS011;10107;51.198;6.824;2023-11-21T18:48:22;11.13;;;8.40;;
19889;SDS011;10107;51.198;6.824;2023-11-21T18:52:26;12.50;;;8.70;;
19889;SDS011;10107;51.198;6.824;2023-11-21T18:56:28;10.77;;;6.63;;
19889;SDS011;10107;51.198;6.824;2023-11-21T19:00:31;13.52;;;9.82;;
19889;SDS011;10107;51.198;6.824;2023-11-21T19:04:32;12.75;;;8.88;;
19889;SDS011;10107;51.198;6.824;2023-11-21T19:08:35;15.02;;;10.35;;
19889;SDS011;10107;51.198;6.824;2023-11-21T19:12:37;11.93;;;7.63;;
19889;SDS011;10107;51.198;6.824;2023-11-21T19:16:39;15.82;;;11.20;;
19889;SDS011;10107;51.198;6.824;2023-11-21T19:20:41;16.95;;;11.75;;
19889;SDS011;10107;51.198;6.824;2023-11-21T19:24:44;13.55;;;9.57;;
19889;SDS011;10107;51.198;6.824;2023-11-21T19:28:45;17.27;;;10.75;;
19889;SDS011;10107;51.198;6.824;2023-11-21T19:32:47;14.15;;;10.27;;
19889;SDS011;10107;51.198;6.824;2023-11-21T19:36:49;15.65;;;10.02;;
19889;SDS011;10107;51.198;6.824;2023-11-21T19:40:52;12.88;;;9.13;;
19889;SDS011;10107;51.198;6.824;2023-11-21T19:44:54;12.93;;;8.20;;
19889;SDS011;10107;51.198;6.824;2023-11-21T19:48:56;13.95;;;9.20;;
19889;SDS011;10107;51.198;6.824;2023-11-21T19:52:57;15.20;;;10.20;;
19889;SDS011;10107;51.198;6.824;2023-11-21T19:57:00;18.58;;;11.13;;
19889;SDS011;10107;51.198;6.824;2023-11-21T20:01:04;16.73;;;11.10;;
19889;SDS011;10107;51.198;6.824;2023-11-21T20:05:06;13.90;;;9.63;;
19889;SDS011;10107;51.198;6.824;2023-11-21T20:09:09;14.15;;;10.13;;
19889;SDS011;10107;51.198;6.824;2023-11-21T20:13:13;13.32;;;9.43;;
19889;SDS011;10107;51.198;6.824;2023-11-21T20:17:14;15.55;;;10.27;;
19889;SDS011;10107;51.198;6.824;2023-11-21T20:21:19;15.15;;;9.80;;
19889;SDS011;10107;51.198;6.824;2023-11-21T20:25:21;14.85;;;9.55;;
19889;SDS011;10107;51.198;6.824;2023-11-21T20:29:24;17.52;;;11.40;;
19889;SDS011;10107;51.198;6.824;2023-11-21T20:33:26;12.95;;;8.77;;
19889;SDS011;10107;51.198;6.824;2023-11-21T20:37:27;12.98;;;8.90;;
19889;SDS011;10107;51.198;6.824;2023-11-21T20:41:29;13.57;;;9.15;;
19889;SDS011;10107;51.198;6.824;2023-11-21T20:45:32;13.68;;;8.85;;
19889;SDS011;10107;51.198;6.824;2023-11-21T20:49:36;13.57;;;9.50;;
19889;SDS011;10107;51.198;6.824;2023-11-21T20:53:37;12.05;;;8.52;;
19889;SDS011;10107;51.198;6.824;2023-11-21T20:57:39;10.80;;;7.63;;
19889;SDS011;10107;51.198;6.824;2023-11-21T21:01:42;12.73;;;8.20;;
19889;SDS011;10107;51.198;6.824;2023-11-21T21:05:44;13.35;;;7.88;;
19889;SDS011;10107;51.198;6.824;2023-11-21T21:09:47;12.30;;;8.57;;
19889;SDS011;10107;51.198;6.824;2023-11-21T21:13:49;14.35;;;8.40;;
19889;SDS011;10107;51.198;6.824;2023-11-21T21:17:54;11.30;;;8.13;;
19889;SDS011;10107;51.198;6.824;2023-11-21T21:21:56;13.55;;;9.30;;
19889;SDS011;10107;51.198;6.824;2023-11-21T21:25:57;16.70;;;10.88;;
19889;SDS011;10107;51.198;6.824;2023-11-21T21:29:59;15.50;;;11.15;;
19889;SDS011;10107;51.198;6.824;2023-11-21T21:34:02;14.43;;;10.32;;
19889;SDS011;10107;51.198;6.824;2023-11-21T21:38:05;13.65;;;9.57;;
19889;SDS011;10107;51.198;6.824;2023-11-21T21:42:07;14.57;;;9.40;;
19889;SDS011;10107;51.198;6.824;2023-11-21T21:46:09;13.77;;;9.15;;
19889;SDS011;10107;51.198;6.824;2023-11-21T21:50:11;15.98;;;9.48;;
19889;SDS011;10107;51.198;6.824;2023-11-21T21:54:13;12.57;;;8.55;;
19889;SDS011;10107;51.198;6.824;2023-11-21T21:58:15;12.15;;;8.07;;
19889;SDS011;10107;51.198;6.824;2023-11-21T22:02:16;12.98;;;9.00;;
19889;SDS011;10107;51.198;6.824;2023-11-21T22:06:19;11.20;;;7.97;;
19889;SDS011;10107;51.198;6.824;2023-11-21T22:10:21;12.90;;;8.98;;
19889;SDS011;10107;51.198;6.824;2023-11-21T22:14:23;13.80;;;9.07;;
19889;SDS011;10107;51.198;6.824;2023-11-21T22:18:24;13.48;;;8.98;;
19889;SDS011;10107;51.198;6.824;2023-11-21T22:22:27;17.15;;;10.75;;
19889;SDS011;10107;51.198;6.824;2023-11-21T22:26:29;20.10;;;11.38;;
19889;SDS011;10107;51.198;6.824;2023-11-21T22:30:31;17.52;;;10.80;;
19889;SDS011;10107;51.198;6.824;2023-11-21T22:34:32;15.35;;;10.13;;
19889;SDS011;10107;51.198;6.824;2023-11-21T22:38:35;14.80;;;10.00;;
19889;SDS011;10107;51.198;6.824;2023-11-21T22:42:37;16.20;;;9.75;;
19889;SDS011;10107;51.198;6.824;2023-11-21T22:46:41;15.07;;;10.13;;
19889;SDS011;10107;51.198;6.824;2023-11-21T22:50:44;14.73;;;10.05;;
19889;SDS011;10107;51.198;6.824;2023-11-21T22:54:48;16.70;;;10.63;;
19889;SDS011;10107;51.198;6.824;2023-11-21T22:58:50;15.27;;;9.90;;
19889;SDS011;10107;51.198;6.824;2023-11-21T23:02:51;15.25;;;10.02;;
19889;SDS011;10107;51.198;6.824;2023-11-21T23:06:53;13.95;;;9.35;;
19889;SDS011;10107;51.198;6.824;2023-11-21T23:10:56;16.92;;;10.50;;
19889;SDS011;10107;51.198;6.824;2023-11-21T23:14:58;16.05;;;10.20;;
19889;SDS011;10107;51.198;6.824;2023-11-21T23:18:59;15.70;;;9.75;;
19889;SDS011;10107;51.198;6.824;2023-11-21T23:23:01;14.77;;;10.07;;
19889;SDS011;10107;51.198;6.824;2023-11-21T23:27:04;16.30;;;10.55;;
19889;SDS011;10107;51.198;6.824;2023-11-21T23:31:06;18.85;;;11.13;;
19889;SDS011;10107;51.198;6.824;2023-11-21T23:35:09;16.50;;;11.10;;
19889;SDS011;10107;51.198;6.824;2023-11-21T23:39:10;16.30;;;10.43;;
19889;SDS011;10107;51.198;6.824;2023-11-21T23:47:19;13.65;;;9.65;;
19889;SDS011;10107;51.198;6.824;2023-11-21T23:51:20;16.15;;;10.43;;
19889;SDS011;10107;51.198;6.824;2023-11-21T23:55:22;17.98;;;11.48;;
19889;SDS011;10107;51.198;6.824;2023-11-21T23:59:25;17.90;;;10.95;;
